Terminal Aerodrome Forecast
Issued by NWS Glasgow, MT

Home | Current Version | Previous Version | Text Only | Print | Product List | Glossary On
Versions: 1 2 3 4 5 6 7 8 9 10 11 12 13 14
449
FTUS45 KGGW 210531
TAFGGW
TAF
KGGW 210531Z 2106/2206 35015G25KT P6SM BKN070
     FM211200 35007KT P6SM SKC
     FM211500 VRB05KT P6SM SCT160
     FM212100 12009KT P6SM BKN110=

USA.gov is the U.S. government's official web portal to all federal, state and local government web resources and services.